sensor_id;sensor_type;location;lat;lon;timestamp;temperature;humidity
66184;DHT22;52989;48.796;9.806;2023-04-24T00:00:13;10.40;99.90
66184;DHT22;52989;48.796;9.806;2023-04-24T00:02:40;10.30;99.90
66184;DHT22;52989;48.796;9.806;2023-04-24T00:05:06;10.30;99.90
66184;DHT22;52989;48.796;9.806;2023-04-24T00:07:31;10.10;99.90
66184;DHT22;52989;48.796;9.806;2023-04-24T00:09:57;10.10;99.90
66184;DHT22;52989;48.796;9.806;2023-04-24T00:12:23;9.80;99.90
66184;DHT22;52989;48.796;9.806;2023-04-24T00:14:48;9.80;99.90
66184;DHT22;52989;48.796;9.806;2023-04-24T00:17:14;9.60;99.90
66184;DHT22;52989;48.796;9.806;2023-04-24T00:19:39;9.50;99.90
66184;DHT22;52989;48.796;9.806;2023-04-24T00:22:05;9.50;99.90
66184;DHT22;52989;48.796;9.806;2023-04-24T00:24:30;9.60;99.90
66184;DHT22;52989;48.796;9.806;2023-04-24T00:26:56;9.70;99.90
66184;DHT22;52989;48.796;9.806;2023-04-24T00:29:21;9.90;99.90
66184;DHT22;52989;48.796;9.806;2023-04-24T00:31:47;9.90;99.90
66184;DHT22;52989;48.796;9.806;2023-04-24T00:34:12;10.00;99.90
66184;DHT22;52989;48.796;9.806;2023-04-24T00:36:38;10.00;99.90
66184;DHT22;52989;48.796;9.806;2023-04-24T00:39:04;10.00;99.90
66184;DHT22;52989;48.796;9.806;2023-04-24T00:41:30;10.00;99.90
66184;DHT22;52989;48.796;9.806;2023-04-24T00:43:55;10.00;99.90
66184;DHT22;52989;48.796;9.806;2023-04-24T00:46:21;10.00;99.90
66184;DHT22;52989;48.796;9.806;2023-04-24T00:48:47;10.10;99.90
66184;DHT22;52989;48.796;9.806;2023-04-24T00:51:12;10.20;99.90
66184;DHT22;52989;48.796;9.806;2023-04-24T00:53:38;10.10;99.90
66184;DHT22;52989;48.796;9.806;2023-04-24T00:56:03;10.10;99.90
66184;DHT22;52989;48.796;9.806;2023-04-24T00:58:29;10.10;99.90
66184;DHT22;52989;48.796;9.806;2023-04-24T01:00:56;10.10;99.90
66184;DHT22;52989;48.796;9.806;2023-04-24T01:03:25;10.20;99.90
66184;DHT22;52989;48.796;9.806;2023-04-24T01:05:51;10.00;99.90
66184;DHT22;52989;48.796;9.806;2023-04-24T01:08:17;9.90;99.90
66184;DHT22;52989;48.796;9.806;2023-04-24T01:10:43;10.00;99.90
66184;DHT22;52989;48.796;9.806;2023-04-24T01:13:09;10.30;99.90
66184;DHT22;52989;48.796;9.806;2023-04-24T01:15:35;10.00;99.90
66184;DHT22;52989;48.796;9.806;2023-04-24T01:18:00;9.90;99.90
66184;DHT22;52989;48.796;9.806;2023-04-24T01:20:27;10.10;99.90
66184;DHT22;52989;48.796;9.806;2023-04-24T01:22:54;10.00;99.90
66184;DHT22;52989;48.796;9.806;2023-04-24T01:25:20;10.50;99.90
66184;DHT22;52989;48.796;9.806;2023-04-24T01:27:45;10.10;99.90
66184;DHT22;52989;48.796;9.806;2023-04-24T01:30:11;10.30;99.90
66184;DHT22;52989;48.796;9.806;2023-04-24T01:32:37;10.10;99.90
66184;DHT22;52989;48.796;9.806;2023-04-24T01:35:03;9.80;99.90
66184;DHT22;52989;48.796;9.806;2023-04-24T01:37:29;10.10;99.90
66184;DHT22;52989;48.796;9.806;2023-04-24T01:39:54;10.20;99.90
66184;DHT22;52989;48.796;9.806;2023-04-24T01:42:20;10.00;99.90
66184;DHT22;52989;48.796;9.806;2023-04-24T01:44:45;10.20;99.90
66184;DHT22;52989;48.796;9.806;2023-04-24T01:47:11;10.30;99.90
66184;DHT22;52989;48.796;9.806;2023-04-24T01:49:37;10.10;99.90
66184;DHT22;52989;48.796;9.806;2023-04-24T01:52:03;10.10;99.90
66184;DHT22;52989;48.796;9.806;2023-04-24T01:54:28;10.10;99.90
66184;DHT22;52989;48.796;9.806;2023-04-24T01:56:54;10.10;99.90
66184;DHT22;52989;48.796;9.806;2023-04-24T01:59:19;10.00;99.90
66184;DHT22;52989;48.796;9.806;2023-04-24T02:01:45;10.10;99.90
66184;DHT22;52989;48.796;9.806;2023-04-24T02:04:11;10.20;99.90
66184;DHT22;52989;48.796;9.806;2023-04-24T02:06:37;10.20;99.90
66184;DHT22;52989;48.796;9.806;2023-04-24T02:09:02;10.30;99.90
66184;DHT22;52989;48.796;9.806;2023-04-24T02:11:28;10.20;99.90
66184;DHT22;52989;48.796;9.806;2023-04-24T02:13:54;10.10;99.90
66184;DHT22;52989;48.796;9.806;2023-04-24T02:16:19;9.90;99.90
66184;DHT22;52989;48.796;9.806;2023-04-24T02:18:45;9.80;99.90
66184;DHT22;52989;48.796;9.806;2023-04-24T02:21:10;9.60;99.90
66184;DHT22;52989;48.796;9.806;2023-04-24T02:23:36;9.60;99.90
66184;DHT22;52989;48.796;9.806;2023-04-24T02:26:01;9.50;99.90
66184;DHT22;52989;48.796;9.806;2023-04-24T02:28:27;9.60;99.90
66184;DHT22;52989;48.796;9.806;2023-04-24T02:30:53;9.50;99.90
66184;DHT22;52989;48.796;9.806;2023-04-24T02:33:18;9.80;99.90
66184;DHT22;52989;48.796;9.806;2023-04-24T02:35:43;9.70;99.90
66184;DHT22;52989;48.796;9.806;2023-04-24T02:38:09;9.60;99.90
66184;DHT22;52989;48.796;9.806;2023-04-24T02:40:34;9.40;99.90
66184;DHT22;52989;48.796;9.806;2023-04-24T02:43:00;9.50;99.90
66184;DHT22;52989;48.796;9.806;2023-04-24T02:45:25;9.60;99.90
66184;DHT22;52989;48.796;9.806;2023-04-24T02:47:51;9.90;99.90
66184;DHT22;52989;48.796;9.806;2023-04-24T02:50:16;10.00;99.90
66184;DHT22;52989;48.796;9.806;2023-04-24T02:52:42;10.00;99.90
66184;DHT22;52989;48.796;9.806;2023-04-24T02:55:07;10.30;99.90
66184;DHT22;52989;48.796;9.806;2023-04-24T02:57:33;10.30;99.90
66184;DHT22;52989;48.796;9.806;2023-04-24T02:59:59;10.20;99.90
66184;DHT22;52989;48.796;9.806;2023-04-24T03:02:24;10.30;99.90
66184;DHT22;52989;48.796;9.806;2023-04-24T03:04:50;9.70;99.90
66184;DHT22;52989;48.796;9.806;2023-04-24T03:07:15;9.70;99.90
66184;DHT22;52989;48.796;9.806;2023-04-24T03:09:41;10.20;99.90
66184;DHT22;52989;48.796;9.806;2023-04-24T03:12:07;10.30;99.90
66184;DHT22;52989;48.796;9.806;2023-04-24T03:14:33;10.20;99.90
66184;DHT22;52989;48.796;9.806;2023-04-24T03:16:58;10.40;99.90
66184;DHT22;52989;48.796;9.806;2023-04-24T03:19:24;10.00;99.90
66184;DHT22;52989;48.796;9.806;2023-04-24T03:21:49;9.80;99.90
66184;DHT22;52989;48.796;9.806;2023-04-24T03:24:15;9.80;99.90
66184;DHT22;52989;48.796;9.806;2023-04-24T03:26:40;9.80;99.90
66184;DHT22;52989;48.796;9.806;2023-04-24T03:29:06;9.90;99.90
66184;DHT22;52989;48.796;9.806;2023-04-24T03:31:31;10.00;99.90
66184;DHT22;52989;48.796;9.806;2023-04-24T03:33:57;10.10;99.90
66184;DHT22;52989;48.796;9.806;2023-04-24T03:36:22;10.20;99.90
66184;DHT22;52989;48.796;9.806;2023-04-24T03:38:48;10.20;99.90
66184;DHT22;52989;48.796;9.806;2023-04-24T03:41:13;9.90;99.90
66184;DHT22;52989;48.796;9.806;2023-04-24T03:43:38;10.00;99.90
66184;DHT22;52989;48.796;9.806;2023-04-24T03:46:04;9.90;99.90
66184;DHT22;52989;48.796;9.806;2023-04-24T03:48:29;10.00;99.90
66184;DHT22;52989;48.796;9.806;2023-04-24T03:50:55;10.10;99.90
66184;DHT22;52989;48.796;9.806;2023-04-24T03:53:20;10.20;99.90
66184;DHT22;52989;48.796;9.806;2023-04-24T03:55:46;10.30;99.90
66184;DHT22;52989;48.796;9.806;2023-04-24T03:58:11;10.30;99.90
66184;DHT22;52989;48.796;9.806;2023-04-24T04:00:38;10.30;99.90
66184;DHT22;52989;48.796;9.806;2023-04-24T04:03:05;9.90;99.90
66184;DHT22;52989;48.796;9.806;2023-04-24T04:05:31;9.80;99.90
66184;DHT22;52989;48.796;9.806;2023-04-24T04:07:56;9.60;99.90
66184;DHT22;52989;48.796;9.806;2023-04-24T04:10:22;10.00;99.90
66184;DHT22;52989;48.796;9.806;2023-04-24T04:12:47;9.90;99.90
66184;DHT22;52989;48.796;9.806;2023-04-24T04:15:13;9.70;99.90
66184;DHT22;52989;48.796;9.806;2023-04-24T04:17:38;9.80;99.90
66184;DHT22;52989;48.796;9.806;2023-04-24T04:20:04;9.80;99.90
66184;DHT22;52989;48.796;9.806;2023-04-24T04:22:34;9.70;99.90
66184;DHT22;52989;48.796;9.806;2023-04-24T04:25:00;9.70;99.90
66184;DHT22;52989;48.796;9.806;2023-04-24T04:27:25;9.70;99.90
66184;DHT22;52989;48.796;9.806;2023-04-24T04:29:51;9.90;99.90
66184;DHT22;52989;48.796;9.806;2023-04-24T04:32:17;9.80;99.90
66184;DHT22;52989;48.796;9.806;2023-04-24T04:34:43;9.90;99.90
66184;DHT22;52989;48.796;9.806;2023-04-24T04:37:10;10.10;99.90
66184;DHT22;52989;48.796;9.806;2023-04-24T04:39:37;9.70;99.90
66184;DHT22;52989;48.796;9.806;2023-04-24T04:42:03;9.60;99.90
66184;DHT22;52989;48.796;9.806;2023-04-24T04:44:29;9.70;99.90
66184;DHT22;52989;48.796;9.806;2023-04-24T04:46:55;9.60;99.90
66184;DHT22;52989;48.796;9.806;2023-04-24T04:49:21;9.40;99.90
66184;DHT22;52989;48.796;9.806;2023-04-24T04:51:49;9.50;99.90
66184;DHT22;52989;48.796;9.806;2023-04-24T04:54:16;9.50;99.90
66184;DHT22;52989;48.796;9.806;2023-04-24T04:56:41;9.60;99.90
66184;DHT22;52989;48.796;9.806;2023-04-24T04:59:07;9.80;99.90
66184;DHT22;52989;48.796;9.806;2023-04-24T05:01:32;9.90;99.90
66184;DHT22;52989;48.796;9.806;2023-04-24T05:03:58;10.10;99.90
66184;DHT22;52989;48.796;9.806;2023-04-24T05:06:23;10.20;99.90
66184;DHT22;52989;48.796;9.806;2023-04-24T05:08:49;9.90;99.90
66184;DHT22;52989;48.796;9.806;2023-04-24T05:11:15;10.00;99.90
66184;DHT22;52989;48.796;9.806;2023-04-24T05:13:40;10.10;99.90
66184;DHT22;52989;48.796;9.806;2023-04-24T05:16:06;10.10;99.90
66184;DHT22;52989;48.796;9.806;2023-04-24T05:18:31;10.20;99.90
66184;DHT22;52989;48.796;9.806;2023-04-24T05:20:57;10.10;99.90
66184;DHT22;52989;48.796;9.806;2023-04-24T05:23:22;10.10;99.90
66184;DHT22;52989;48.796;9.806;2023-04-24T05:25:48;10.30;99.90
66184;DHT22;52989;48.796;9.806;2023-04-24T05:28:13;9.60;99.90
66184;DHT22;52989;48.796;9.806;2023-04-24T05:30:39;10.00;99.90
66184;DHT22;52989;48.796;9.806;2023-04-24T05:33:04;9.50;99.90
66184;DHT22;52989;48.796;9.806;2023-04-24T05:35:30;9.40;99.90
66184;DHT22;52989;48.796;9.806;2023-04-24T05:37:55;9.30;99.90
66184;DHT22;52989;48.796;9.806;2023-04-24T05:40:21;9.30;99.90
66184;DHT22;52989;48.796;9.806;2023-04-24T05:42:46;9.40;99.90
66184;DHT22;52989;48.796;9.806;2023-04-24T05:45:12;9.10;99.90
66184;DHT22;52989;48.796;9.806;2023-04-24T05:47:42;9.20;99.90
66184;DHT22;52989;48.796;9.806;2023-04-24T05:50:09;9.10;99.90
66184;DHT22;52989;48.796;9.806;2023-04-24T05:52:34;9.20;99.90
66184;DHT22;52989;48.796;9.806;2023-04-24T05:55:00;9.20;99.90
66184;DHT22;52989;48.796;9.806;2023-04-24T05:57:26;9.10;99.90
66184;DHT22;52989;48.796;9.806;2023-04-24T05:59:51;9.30;99.90
66184;DHT22;52989;48.796;9.806;2023-04-24T06:02:16;9.50;99.90
66184;DHT22;52989;48.796;9.806;2023-04-24T06:04:42;9.30;99.90
66184;DHT22;52989;48.796;9.806;2023-04-24T06:07:10;9.30;99.90
66184;DHT22;52989;48.796;9.806;2023-04-24T06:09:35;9.80;99.90
66184;DHT22;52989;48.796;9.806;2023-04-24T06:12:01;9.30;99.90
66184;DHT22;52989;48.796;9.806;2023-04-24T06:14:27;9.30;99.90
66184;DHT22;52989;48.796;9.806;2023-04-24T06:16:53;9.40;99.90
66184;DHT22;52989;48.796;9.806;2023-04-24T06:19:18;9.40;99.90
66184;DHT22;52989;48.796;9.806;2023-04-24T06:21:44;9.50;99.90
66184;DHT22;52989;48.796;9.806;2023-04-24T06:24:09;10.00;99.90
66184;DHT22;52989;48.796;9.806;2023-04-24T06:26:35;9.60;99.90
66184;DHT22;52989;48.796;9.806;2023-04-24T06:29:01;9.40;99.90
66184;DHT22;52989;48.796;9.806;2023-04-24T06:31:27;10.00;99.90
66184;DHT22;52989;48.796;9.806;2023-04-24T06:33:52;9.90;99.90
66184;DHT22;52989;48.796;9.806;2023-04-24T06:36:18;9.60;99.90
66184;DHT22;52989;48.796;9.806;2023-04-24T06:38:43;10.00;99.90
66184;DHT22;52989;48.796;9.806;2023-04-24T06:41:09;10.20;99.90
66184;DHT22;52989;48.796;9.806;2023-04-24T06:43:35;9.70;99.90
66184;DHT22;52989;48.796;9.806;2023-04-24T06:46:00;9.50;99.90
66184;DHT22;52989;48.796;9.806;2023-04-24T06:48:26;10.00;99.90
66184;DHT22;52989;48.796;9.806;2023-04-24T06:50:51;9.80;99.90
66184;DHT22;52989;48.796;9.806;2023-04-24T06:53:17;10.60;99.90
66184;DHT22;52989;48.796;9.806;2023-04-24T06:55:43;10.00;99.90
66184;DHT22;52989;48.796;9.806;2023-04-24T06:58:10;10.10;99.90
66184;DHT22;52989;48.796;9.806;2023-04-24T07:00:36;10.60;99.90
66184;DHT22;52989;48.796;9.806;2023-04-24T07:03:01;10.60;99.90
66184;DHT22;52989;48.796;9.806;2023-04-24T07:05:27;10.60;99.90
66184;DHT22;52989;48.796;9.806;2023-04-24T07:07:53;10.50;99.90
66184;DHT22;52989;48.796;9.806;2023-04-24T07:10:18;10.60;99.90
66184;DHT22;52989;48.796;9.806;2023-04-24T07:12:45;10.20;99.90
66184;DHT22;52989;48.796;9.806;2023-04-24T07:15:11;10.00;99.90
66184;DHT22;52989;48.796;9.806;2023-04-24T07:17:37;9.90;99.90
66184;DHT22;52989;48.796;9.806;2023-04-24T07:20:04;10.50;99.90
66184;DHT22;52989;48.796;9.806;2023-04-24T07:22:29;10.50;99.90
66184;DHT22;52989;48.796;9.806;2023-04-24T07:24:55;10.50;99.90
66184;DHT22;52989;48.796;9.806;2023-04-24T07:27:20;10.50;99.90
66184;DHT22;52989;48.796;9.806;2023-04-24T07:29:46;10.50;99.90
66184;DHT22;52989;48.796;9.806;2023-04-24T07:32:11;10.60;99.90
66184;DHT22;52989;48.796;9.806;2023-04-24T07:34:37;10.70;99.90
66184;DHT22;52989;48.796;9.806;2023-04-24T07:37:02;11.00;99.90
66184;DHT22;52989;48.796;9.806;2023-04-24T07:39:28;11.60;99.90
66184;DHT22;52989;48.796;9.806;2023-04-24T07:41:54;11.50;99.90
66184;DHT22;52989;48.796;9.806;2023-04-24T07:44:20;11.40;99.90
66184;DHT22;52989;48.796;9.806;2023-04-24T07:46:45;11.20;99.90
66184;DHT22;52989;48.796;9.806;2023-04-24T07:49:10;11.20;99.90
66184;DHT22;52989;48.796;9.806;2023-04-24T07:51:36;11.20;99.90
66184;DHT22;52989;48.796;9.806;2023-04-24T07:54:04;11.10;99.90
66184;DHT22;52989;48.796;9.806;2023-04-24T07:56:31;11.10;99.90
66184;DHT22;52989;48.796;9.806;2023-04-24T07:58:56;10.70;99.90
66184;DHT22;52989;48.796;9.806;2023-04-24T08:01:22;11.00;99.90
66184;DHT22;52989;48.796;9.806;2023-04-24T08:03:47;11.10;99.90
66184;DHT22;52989;48.796;9.806;2023-04-24T08:06:13;11.10;99.90
66184;DHT22;52989;48.796;9.806;2023-04-24T08:08:38;11.30;99.90
66184;DHT22;52989;48.796;9.806;2023-04-24T08:11:04;11.30;99.90
66184;DHT22;52989;48.796;9.806;2023-04-24T08:13:29;11.60;99.90
66184;DHT22;52989;48.796;9.806;2023-04-24T08:15:56;11.60;99.90
66184;DHT22;52989;48.796;9.806;2023-04-24T08:18:21;11.70;99.90
66184;DHT22;52989;48.796;9.806;2023-04-24T08:20:47;11.50;99.90
66184;DHT22;52989;48.796;9.806;2023-04-24T08:23:13;11.20;99.90
66184;DHT22;52989;48.796;9.806;2023-04-24T08:25:38;10.50;99.90
66184;DHT22;52989;48.796;9.806;2023-04-24T08:28:05;10.10;99.90
66184;DHT22;52989;48.796;9.806;2023-04-24T08:30:31;10.20;99.90
66184;DHT22;52989;48.796;9.806;2023-04-24T08:32:56;10.30;99.90
66184;DHT22;52989;48.796;9.806;2023-04-24T08:35:22;10.50;99.90
66184;DHT22;52989;48.796;9.806;2023-04-24T08:37:48;10.20;99.90
66184;DHT22;52989;48.796;9.806;2023-04-24T08:40:14;10.00;99.90
66184;DHT22;52989;48.796;9.806;2023-04-24T08:42:41;10.10;99.90
66184;DHT22;52989;48.796;9.806;2023-04-24T08:45:07;10.50;99.90
66184;DHT22;52989;48.796;9.806;2023-04-24T08:47:33;10.70;99.90
66184;DHT22;52989;48.796;9.806;2023-04-24T08:50:00;10.80;99.90
66184;DHT22;52989;48.796;9.806;2023-04-24T08:52:28;10.90;99.90
66184;DHT22;52989;48.796;9.806;2023-04-24T08:54:53;11.40;99.90
66184;DHT22;52989;48.796;9.806;2023-04-24T08:57:20;11.40;99.90
66184;DHT22;52989;48.796;9.806;2023-04-24T08:59:45;11.50;99.90
66184;DHT22;52989;48.796;9.806;2023-04-24T09:02:12;11.40;99.90
66184;DHT22;52989;48.796;9.806;2023-04-24T09:04:38;11.40;99.90
66184;DHT22;52989;48.796;9.806;2023-04-24T09:07:07;11.70;99.90
66184;DHT22;52989;48.796;9.806;2023-04-24T09:09:33;11.80;99.90
66184;DHT22;52989;48.796;9.806;2023-04-24T09:11:59;11.80;99.90
66184;DHT22;52989;48.796;9.806;2023-04-24T09:14:25;11.60;99.40
66184;DHT22;52989;48.796;9.806;2023-04-24T09:16:51;11.60;99.90
66184;DHT22;52989;48.796;9.806;2023-04-24T09:19:16;11.40;98.80
66184;DHT22;52989;48.796;9.806;2023-04-24T09:21:42;11.40;97.30
66184;DHT22;52989;48.796;9.806;2023-04-24T09:24:17;11.50;99.10
66184;DHT22;52989;48.796;9.806;2023-04-24T09:26:43;11.10;96.90
66184;DHT22;52989;48.796;9.806;2023-04-24T09:29:13;11.50;99.90
66184;DHT22;52989;48.796;9.806;2023-04-24T09:31:39;11.80;98.10
66184;DHT22;52989;48.796;9.806;2023-04-24T09:34:04;12.20;97.30
66184;DHT22;52989;48.796;9.806;2023-04-24T09:36:37;12.20;95.80
66184;DHT22;52989;48.796;9.806;2023-04-24T09:39:04;12.50;96.50
66184;DHT22;52989;48.796;9.806;2023-04-24T09:41:31;12.50;95.90
66184;DHT22;52989;48.796;9.806;2023-04-24T09:43:57;12.50;95.70
66184;DHT22;52989;48.796;9.806;2023-04-24T09:46:29;13.00;98.10
66184;DHT22;52989;48.796;9.806;2023-04-24T09:48:55;12.60;94.50
66184;DHT22;52989;48.796;9.806;2023-04-24T09:51:32;12.40;95.60
66184;DHT22;52989;48.796;9.806;2023-04-24T09:53:59;11.80;94.80
66184;DHT22;52989;48.796;9.806;2023-04-24T09:56:25;11.90;94.70
66184;DHT22;52989;48.796;9.806;2023-04-24T09:58:51;12.00;94.20
66184;DHT22;52989;48.796;9.806;2023-04-24T10:01:28;11.90;93.90
66184;DHT22;52989;48.796;9.806;2023-04-24T10:03:54;12.00;94.90
66184;DHT22;52989;48.796;9.806;2023-04-24T10:06:20;11.90;94.40
66184;DHT22;52989;48.796;9.806;2023-04-24T10:08:45;12.10;94.90
66184;DHT22;52989;48.796;9.806;2023-04-24T10:11:11;12.10;94.80
66184;DHT22;52989;48.796;9.806;2023-04-24T10:13:38;11.90;95.30
66184;DHT22;52989;48.796;9.806;2023-04-24T10:16:05;11.70;92.60
66184;DHT22;52989;48.796;9.806;2023-04-24T10:18:31;11.60;95.20
66184;DHT22;52989;48.796;9.806;2023-04-24T10:20:57;11.70;93.60
66184;DHT22;52989;48.796;9.806;2023-04-24T10:23:25;11.70;93.40
66184;DHT22;52989;48.796;9.806;2023-04-24T10:25:50;11.70;93.10
66184;DHT22;52989;48.796;9.806;2023-04-24T10:28:16;11.90;93.30
66184;DHT22;52989;48.796;9.806;2023-04-24T10:30:43;11.80;91.70
66184;DHT22;52989;48.796;9.806;2023-04-24T10:33:08;12.20;92.50
66184;DHT22;52989;48.796;9.806;2023-04-24T10:35:34;12.50;92.00
66184;DHT22;52989;48.796;9.806;2023-04-24T10:38:08;12.50;91.70
66184;DHT22;52989;48.796;9.806;2023-04-24T10:40:35;12.60;91.10
66184;DHT22;52989;48.796;9.806;2023-04-24T10:43:04;12.60;90.40
66184;DHT22;52989;48.796;9.806;2023-04-24T10:45:31;12.90;89.80
66184;DHT22;52989;48.796;9.806;2023-04-24T10:50:22;13.20;89.90
66184;DHT22;52989;48.796;9.806;2023-04-24T10:52:48;13.00;89.20
66184;DHT22;52989;48.796;9.806;2023-04-24T10:55:16;12.50;87.50
66184;DHT22;52989;48.796;9.806;2023-04-24T10:58:00;12.10;90.20
66184;DHT22;52989;48.796;9.806;2023-04-24T11:00:26;12.00;90.20
66184;DHT22;52989;48.796;9.806;2023-04-24T11:02:53;12.10;90.50
66184;DHT22;52989;48.796;9.806;2023-04-24T11:05:21;12.20;87.70
66184;DHT22;52989;48.796;9.806;2023-04-24T11:10:30;12.50;87.80
66184;DHT22;52989;48.796;9.806;2023-04-24T11:12:56;13.20;85.60
66184;DHT22;52989;48.796;9.806;2023-04-24T11:15:21;13.50;86.20
66184;DHT22;52989;48.796;9.806;2023-04-24T11:17:47;13.50;85.60
66184;DHT22;52989;48.796;9.806;2023-04-24T11:20:17;14.00;84.50
66184;DHT22;52989;48.796;9.806;2023-04-24T11:22:43;14.00;79.10
66184;DHT22;52989;48.796;9.806;2023-04-24T11:25:09;13.70;78.20
66184;DHT22;52989;48.796;9.806;2023-04-24T11:27:43;13.60;78.20
66184;DHT22;52989;48.796;9.806;2023-04-24T11:30:09;13.40;75.60
66184;DHT22;52989;48.796;9.806;2023-04-24T11:35:02;12.90;77.30
66184;DHT22;52989;48.796;9.806;2023-04-24T11:37:30;12.80;77.90
66184;DHT22;52989;48.796;9.806;2023-04-24T11:39:58;12.60;77.40
66184;DHT22;52989;48.796;9.806;2023-04-24T11:42:24;12.70;77.40
66184;DHT22;52989;48.796;9.806;2023-04-24T11:44:53;12.80;75.90
66184;DHT22;52989;48.796;9.806;2023-04-24T11:47:27;12.50;77.60
66184;DHT22;52989;48.796;9.806;2023-04-24T11:49:52;12.80;78.10
66184;DHT22;52989;48.796;9.806;2023-04-24T11:52:18;13.00;77.50
66184;DHT22;52989;48.796;9.806;2023-04-24T11:54:47;13.20;79.90
66184;DHT22;52989;48.796;9.806;2023-04-24T11:57:13;12.70;75.80
66184;DHT22;52989;48.796;9.806;2023-04-24T11:59:39;12.90;80.20
66184;DHT22;52989;48.796;9.806;2023-04-24T12:02:05;12.60;79.20
66184;DHT22;52989;48.796;9.806;2023-04-24T12:04:38;12.50;78.10
66184;DHT22;52989;48.796;9.806;2023-04-24T12:07:03;12.80;80.30
66184;DHT22;52989;48.796;9.806;2023-04-24T12:10:03;13.00;80.20
66184;DHT22;52989;48.796;9.806;2023-04-24T12:12:23;13.00;78.00
66184;DHT22;52989;48.796;9.806;2023-04-24T12:14:54;12.30;80.10
66184;DHT22;52989;48.796;9.806;2023-04-24T12:17:30;11.90;81.00
66184;DHT22;52989;48.796;9.806;2023-04-24T12:20:00;12.00;84.70
66184;DHT22;52989;48.796;9.806;2023-04-24T12:22:26;12.10;82.60
66184;DHT22;52989;48.796;9.806;2023-04-24T12:24:58;12.30;84.40
66184;DHT22;52989;48.796;9.806;2023-04-24T12:27:24;12.70;82.20
66184;DHT22;52989;48.796;9.806;2023-04-24T12:29:53;13.20;82.00
66184;DHT22;52989;48.796;9.806;2023-04-24T12:32:19;13.50;79.50
66184;DHT22;52989;48.796;9.806;2023-04-24T12:34:44;13.50;79.50
66184;DHT22;52989;48.796;9.806;2023-04-24T12:37:11;13.60;78.10
66184;DHT22;52989;48.796;9.806;2023-04-24T12:39:36;13.20;79.90
66184;DHT22;52989;48.796;9.806;2023-04-24T12:42:02;12.70;78.80
66184;DHT22;52989;48.796;9.806;2023-04-24T12:44:34;12.60;79.20
66184;DHT22;52989;48.796;9.806;2023-04-24T12:47:00;12.30;79.80
66184;DHT22;52989;48.796;9.806;2023-04-24T12:49:25;12.10;79.00
66184;DHT22;52989;48.796;9.806;2023-04-24T12:51:51;11.80;85.30
66184;DHT22;52989;48.796;9.806;2023-04-24T12:54:17;11.90;86.80
66184;DHT22;52989;48.796;9.806;2023-04-24T12:56:42;11.10;90.30
66184;DHT22;52989;48.796;9.806;2023-04-24T12:59:08;11.40;89.10
66184;DHT22;52989;48.796;9.806;2023-04-24T13:01:33;11.30;88.20
66184;DHT22;52989;48.796;9.806;2023-04-24T13:03:59;12.30;92.40
66184;DHT22;52989;48.796;9.806;2023-04-24T13:06:24;12.60;85.70
66184;DHT22;52989;48.796;9.806;2023-04-24T13:08:51;12.70;84.70
66184;DHT22;52989;48.796;9.806;2023-04-24T13:11:17;13.10;85.00
66184;DHT22;52989;48.796;9.806;2023-04-24T13:13:42;13.20;82.80
66184;DHT22;52989;48.796;9.806;2023-04-24T13:16:08;12.80;84.10
66184;DHT22;52989;48.796;9.806;2023-04-24T13:18:33;12.50;79.70
66184;DHT22;52989;48.796;9.806;2023-04-24T13:20:59;12.80;81.20
66184;DHT22;52989;48.796;9.806;2023-04-24T13:23:24;12.40;82.30
66184;DHT22;52989;48.796;9.806;2023-04-24T13:25:50;12.30;81.40
66184;DHT22;52989;48.796;9.806;2023-04-24T13:28:15;12.10;79.40
66184;DHT22;52989;48.796;9.806;2023-04-24T13:30:41;12.10;81.10
66184;DHT22;52989;48.796;9.806;2023-04-24T13:33:06;12.20;82.30
66184;DHT22;52989;48.796;9.806;2023-04-24T13:35:32;12.10;80.90
66184;DHT22;52989;48.796;9.806;2023-04-24T13:37:57;11.90;80.80
66184;DHT22;52989;48.796;9.806;2023-04-24T13:40:23;12.00;80.90
66184;DHT22;52989;48.796;9.806;2023-04-24T13:42:48;12.50;82.60
66184;DHT22;52989;48.796;9.806;2023-04-24T13:45:14;12.20;79.80
66184;DHT22;52989;48.796;9.806;2023-04-24T13:47:39;12.10;79.70
66184;DHT22;52989;48.796;9.806;2023-04-24T13:50:09;11.70;81.50
66184;DHT22;52989;48.796;9.806;2023-04-24T13:52:35;11.80;82.40
66184;DHT22;52989;48.796;9.806;2023-04-24T13:55:00;12.00;83.20
66184;DHT22;52989;48.796;9.806;2023-04-24T13:57:26;11.60;83.90
66184;DHT22;52989;48.796;9.806;2023-04-24T13:59:52;11.50;87.50
66184;DHT22;52989;48.796;9.806;2023-04-24T14:02:18;11.40;86.00
66184;DHT22;52989;48.796;9.806;2023-04-24T14:04:43;11.30;87.80
66184;DHT22;52989;48.796;9.806;2023-04-24T14:07:09;11.20;88.40
66184;DHT22;52989;48.796;9.806;2023-04-24T14:09:34;10.90;89.50
66184;DHT22;52989;48.796;9.806;2023-04-24T14:12:00;10.90;91.40
66184;DHT22;52989;48.796;9.806;2023-04-24T14:14:27;10.90;91.90
66184;DHT22;52989;48.796;9.806;2023-04-24T14:16:52;10.90;92.00
66184;DHT22;52989;48.796;9.806;2023-04-24T14:19:18;11.30;91.80
66184;DHT22;52989;48.796;9.806;2023-04-24T14:21:43;11.60;92.40
66184;DHT22;52989;48.796;9.806;2023-04-24T14:24:09;12.00;91.60
66184;DHT22;52989;48.796;9.806;2023-04-24T14:26:34;11.90;91.00
66184;DHT22;52989;48.796;9.806;2023-04-24T14:29:00;12.10;90.60
66184;DHT22;52989;48.796;9.806;2023-04-24T14:31:25;12.40;89.60
66184;DHT22;52989;48.796;9.806;2023-04-24T14:33:51;12.60;88.10
66184;DHT22;52989;48.796;9.806;2023-04-24T14:36:16;12.50;88.00
66184;DHT22;52989;48.796;9.806;2023-04-24T14:38:42;12.00;87.00
66184;DHT22;52989;48.796;9.806;2023-04-24T14:41:07;11.90;90.00
66184;DHT22;52989;48.796;9.806;2023-04-24T14:43:35;11.90;89.30
66184;DHT22;52989;48.796;9.806;2023-04-24T14:46:01;11.90;86.30
66184;DHT22;52989;48.796;9.806;2023-04-24T14:48:26;11.40;90.30
66184;DHT22;52989;48.796;9.806;2023-04-24T14:50:52;11.30;92.10
66184;DHT22;52989;48.796;9.806;2023-04-24T14:53:17;11.00;93.30
66184;DHT22;52989;48.796;9.806;2023-04-24T14:55:44;10.40;93.50
66184;DHT22;52989;48.796;9.806;2023-04-24T14:58:09;10.10;95.30
66184;DHT22;52989;48.796;9.806;2023-04-24T15:00:35;10.40;97.00
66184;DHT22;52989;48.796;9.806;2023-04-24T15:03:00;9.70;96.00
66184;DHT22;52989;48.796;9.806;2023-04-24T15:05:26;9.70;97.30
66184;DHT22;52989;48.796;9.806;2023-04-24T15:07:51;10.10;98.40
66184;DHT22;52989;48.796;9.806;2023-04-24T15:10:17;10.20;96.30
66184;DHT22;52989;48.796;9.806;2023-04-24T15:12:43;10.70;98.40
66184;DHT22;52989;48.796;9.806;2023-04-24T15:15:08;10.90;96.60
66184;DHT22;52989;48.796;9.806;2023-04-24T15:17:34;10.90;95.10
66184;DHT22;52989;48.796;9.806;2023-04-24T15:19:59;11.10;95.60
66184;DHT22;52989;48.796;9.806;2023-04-24T15:22:26;11.30;96.30
66184;DHT22;52989;48.796;9.806;2023-04-24T15:24:51;11.70;95.90
66184;DHT22;52989;48.796;9.806;2023-04-24T15:27:17;11.40;93.80
66184;DHT22;52989;48.796;9.806;2023-04-24T15:29:42;11.30;94.20
66184;DHT22;52989;48.796;9.806;2023-04-24T15:32:08;11.60;93.30
66184;DHT22;52989;48.796;9.806;2023-04-24T15:34:33;11.30;93.30